createdAt,value
2023-04-29T00:01:11.143Z,10.90
2023-04-29T00:03:39.285Z,10.88
2023-04-29T00:06:08.873Z,10.89
2023-04-29T00:08:36.985Z,10.88
2023-04-29T00:11:04.911Z,10.88
2023-04-29T00:13:32.999Z,10.87
2023-04-29T00:16:01.129Z,10.85
2023-04-29T00:18:29.032Z,10.87
2023-04-29T00:20:56.900Z,10.85
2023-04-29T00:23:26.755Z,10.84
2023-04-29T00:25:55.326Z,10.81
2023-04-29T00:28:23.958Z,10.80
2023-04-29T00:30:52.305Z,10.76
2023-04-29T00:33:20.442Z,10.77
2023-04-29T00:35:48.325Z,10.78
2023-04-29T00:38:16.438Z,10.72
2023-04-29T00:40:46.290Z,10.71
2023-04-29T00:43:14.593Z,10.70
2023-04-29T00:45:42.484Z,10.67
2023-04-29T00:48:10.449Z,10.65
2023-04-29T00:50:38.964Z,10.62
2023-04-29T00:53:06.932Z,10.62
2023-04-29T00:55:36.627Z,10.60
2023-04-29T00:58:05.884Z,10.58
2023-04-29T01:00:34.147Z,10.56
2023-04-29T01:03:02.714Z,10.52
2023-04-29T01:05:30.702Z,10.46
2023-04-29T01:08:11.330Z,10.46
2023-04-29T01:10:45.318Z,10.42
2023-04-29T01:13:19.261Z,10.42
2023-04-29T01:15:56.705Z,10.41
2023-04-29T01:18:29.024Z,10.40
2023-04-29T01:20:59.036Z,10.40
2023-04-29T01:23:29.271Z,10.34
2023-04-29T01:25:58.333Z,10.29
2023-04-29T01:29:00.360Z,10.33
2023-04-29T01:31:33.763Z,10.29
2023-04-29T01:34:10.544Z,10.29
2023-04-29T01:36:54.334Z,10.27
2023-04-29T01:39:32.386Z,10.26
2023-04-29T01:42:19.309Z,10.17
2023-04-29T01:44:51.081Z,10.22
2023-04-29T01:47:22.648Z,10.26
2023-04-29T01:49:54.074Z,10.26
2023-04-29T01:52:23.256Z,10.21
2023-04-29T01:54:57.565Z,10.18
2023-04-29T01:57:29.133Z,10.13
2023-04-29T02:00:12.676Z,10.11
2023-04-29T02:02:48.096Z,10.07
2023-04-29T02:05:32.240Z,10.09
2023-04-29T02:08:00.244Z,10.07
2023-04-29T02:10:29.712Z,10.01
2023-04-29T02:13:13.468Z,10.05
2023-04-29T02:15:42.248Z,10.01
2023-04-29T02:18:10.670Z,9.94
2023-04-29T02:20:38.561Z,9.95
2023-04-29T02:23:06.805Z,9.92
2023-04-29T02:25:36.421Z,9.85
2023-04-29T02:28:04.286Z,9.83
2023-04-29T02:30:32.909Z,9.85
2023-04-29T02:33:01.184Z,9.76
2023-04-29T02:35:29.255Z,9.74
2023-04-29T02:37:57.489Z,9.74
2023-04-29T02:40:27.092Z,9.68
2023-04-29T02:42:56.597Z,9.67
2023-04-29T02:45:24.527Z,9.60
2023-04-29T02:47:53.004Z,9.54
2023-04-29T02:50:20.954Z,9.57
2023-04-29T02:52:50.082Z,9.52
2023-04-29T02:55:19.030Z,9.49
2023-04-29T02:57:46.985Z,9.47
2023-04-29T03:00:16.273Z,9.44
2023-04-29T03:02:44.379Z,9.41
2023-04-29T03:05:12.290Z,9.43
2023-04-29T03:07:40.676Z,9.34
2023-04-29T03:10:10.472Z,9.29
2023-04-29T03:12:39.393Z,9.29
2023-04-29T03:15:10.509Z,9.27
2023-04-29T03:17:39.999Z,9.30
2023-04-29T03:20:10.756Z,9.27
2023-04-29T03:22:38.555Z,9.26
2023-04-29T03:25:08.178Z,9.26
2023-04-29T03:27:36.443Z,9.20
2023-04-29T03:30:04.495Z,9.26
2023-04-29T03:32:32.841Z,9.30
2023-04-29T03:35:03.415Z,9.21
2023-04-29T03:37:39.446Z,9.26
2023-04-29T03:40:19.725Z,9.21
2023-04-29T03:42:51.159Z,9.21
2023-04-29T03:45:20.056Z,9.21
2023-04-29T03:47:47.957Z,9.16
2023-04-29T03:50:17.546Z,9.11
2023-04-29T03:52:45.785Z,9.09
2023-04-29T03:55:17.733Z,9.09
2023-04-29T03:57:46.972Z,9.06
2023-04-29T04:00:17.752Z,9.00
2023-04-29T04:02:49.092Z,8.92
2023-04-29T04:05:21.294Z,8.91
2023-04-29T04:07:54.592Z,8.92
2023-04-29T04:10:48.443Z,8.96
2023-04-29T04:13:43.176Z,9.01
2023-04-29T04:16:12.065Z,8.93
2023-04-29T04:18:40.394Z,8.91
2023-04-29T04:21:11.366Z,8.87
2023-04-29T04:23:41.377Z,8.83
2023-04-29T04:26:11.785Z,8.83
2023-04-29T04:28:54.762Z,8.79
2023-04-29T04:31:31.995Z,8.80
2023-04-29T04:34:01.013Z,8.84
2023-04-29T04:36:32.705Z,8.82
2023-04-29T04:39:00.896Z,8.82
2023-04-29T04:41:31.649Z,8.80
2023-04-29T04:43:59.789Z,8.78
2023-04-29T04:46:39.680Z,8.79
2023-04-29T04:49:14.237Z,8.77
2023-04-29T04:51:51.591Z,8.77
2023-04-29T04:54:19.548Z,8.81
2023-04-29T04:56:52.245Z,8.87
2023-04-29T04:59:20.994Z,8.88
2023-04-29T05:01:48.824Z,8.95
2023-04-29T05:04:17.351Z,8.97
2023-04-29T05:06:45.345Z,9.00
2023-04-29T05:09:15.261Z,9.03
2023-04-29T05:11:43.513Z,9.07
2023-04-29T05:14:18.062Z,9.12
2023-04-29T05:16:46.842Z,9.14
2023-04-29T05:19:15.309Z,9.19
2023-04-29T05:21:43.410Z,9.27
2023-04-29T05:24:12.656Z,9.32
2023-04-29T05:26:43.651Z,9.39
2023-04-29T05:29:12.142Z,9.51
2023-04-29T05:31:48.834Z,9.67
2023-04-29T05:34:16.836Z,9.77
2023-04-29T05:36:44.713Z,9.85
2023-04-29T05:39:12.552Z,9.90
2023-04-29T05:41:42.060Z,9.95
2023-04-29T05:44:23.890Z,10.04
2023-04-29T05:46:51.940Z,10.08
2023-04-29T05:49:20.534Z,10.19
2023-04-29T05:51:48.367Z,10.19
2023-04-29T05:54:16.627Z,10.20
2023-04-29T05:56:47.734Z,10.22
2023-04-29T05:59:15.650Z,10.32
2023-04-29T06:01:51.086Z,10.43
2023-04-29T06:04:19.342Z,10.56
2023-04-29T06:07:13.569Z,10.68
2023-04-29T06:10:02.006Z,10.78
2023-04-29T06:12:32.907Z,10.85
2023-04-29T06:15:01.384Z,10.91
2023-04-29T06:17:29.767Z,10.96
2023-04-29T06:19:57.691Z,10.97
2023-04-29T06:22:25.535Z,11.00
2023-04-29T06:24:55.453Z,11.04
2023-04-29T06:27:34.937Z,11.00
2023-04-29T06:30:03.101Z,11.03
2023-04-29T06:32:31.354Z,11.07
2023-04-29T06:34:59.206Z,11.07
2023-04-29T06:37:31.978Z,11.07
2023-04-29T06:40:13.423Z,11.13
2023-04-29T06:43:06.700Z,11.21
2023-04-29T06:46:00.706Z,11.30
2023-04-29T06:48:35.403Z,11.39
2023-04-29T06:51:05.382Z,11.52
2023-04-29T06:53:37.228Z,11.49
2023-04-29T06:56:05.826Z,11.49
2023-04-29T06:58:35.088Z,11.56
2023-04-29T07:01:04.270Z,11.59
2023-04-29T07:03:32.390Z,11.66
2023-04-29T07:06:00.365Z,11.79
2023-04-29T07:08:28.762Z,11.83
2023-04-29T07:10:57.634Z,11.88
2023-04-29T07:13:26.571Z,11.83
2023-04-29T07:15:55.858Z,11.89
2023-04-29T07:18:23.908Z,11.95
2023-04-29T07:20:52.992Z,11.92
2023-04-29T07:23:20.970Z,11.96
2023-04-29T07:25:48.860Z,12.14
2023-04-29T07:28:18.316Z,12.20
2023-04-29T07:30:46.164Z,12.21
2023-04-29T07:33:17.256Z,12.16
2023-04-29T07:35:47.138Z,12.13
2023-04-29T07:38:15.733Z,12.29
2023-04-29T07:40:44.310Z,12.27
2023-04-29T07:43:13.565Z,12.24
2023-04-29T07:45:41.508Z,12.29
2023-04-29T07:48:09.364Z,12.31
2023-04-29T07:50:39.588Z,12.31
2023-04-29T07:53:08.791Z,12.43
2023-04-29T07:55:38.591Z,12.45
2023-04-29T07:58:08.133Z,12.49
2023-04-29T08:00:36.532Z,12.46
2023-04-29T08:03:04.607Z,12.41
2023-04-29T08:05:32.883Z,12.51
2023-04-29T08:08:03.145Z,12.47
2023-04-29T08:10:32.052Z,12.47
2023-04-29T08:13:00.390Z,12.48
2023-04-29T08:15:30.016Z,12.47
2023-04-29T08:17:57.884Z,12.41
2023-04-29T08:20:27.570Z,12.51
2023-04-29T08:22:55.942Z,12.55
2023-04-29T08:25:27.350Z,12.55
2023-04-29T08:27:55.354Z,12.57
2023-04-29T08:30:23.212Z,12.58
2023-04-29T08:32:52.357Z,12.64
2023-04-29T08:35:20.569Z,12.71
2023-04-29T08:37:48.748Z,12.73
2023-04-29T08:40:17.367Z,12.85
2023-04-29T08:42:48.984Z,12.91
2023-04-29T08:45:21.105Z,12.86
2023-04-29T08:47:49.788Z,12.86
2023-04-29T08:50:18.641Z,12.97
2023-04-29T08:52:46.589Z,12.91
2023-04-29T08:55:15.072Z,13.04
2023-04-29T08:57:45.740Z,12.97
2023-04-29T09:00:16.038Z,12.98
2023-04-29T09:02:48.694Z,12.96
2023-04-29T09:05:17.424Z,12.95
2023-04-29T09:07:46.383Z,12.95
2023-04-29T09:10:17.698Z,12.93
2023-04-29T09:12:46.168Z,12.86
2023-04-29T09:15:15.415Z,12.85
2023-04-29T09:17:45.641Z,12.86
2023-04-29T09:20:28.160Z,13.04
2023-04-29T09:22:57.557Z,13.01
2023-04-29T09:25:27.288Z,13.01
2023-04-29T09:27:55.864Z,13.02
2023-04-29T09:30:26.736Z,13.03
2023-04-29T09:33:08.854Z,12.96
2023-04-29T09:35:37.396Z,12.96
2023-04-29T09:38:13.513Z,13.08
2023-04-29T09:40:57.435Z,13.08
2023-04-29T09:43:26.799Z,13.17
2023-04-29T09:46:01.774Z,13.13
2023-04-29T09:48:36.406Z,13.16
2023-04-29T09:51:08.990Z,13.13
2023-04-29T09:53:38.985Z,13.17
2023-04-29T09:56:07.378Z,13.27
2023-04-29T09:58:38.028Z,13.35
2023-04-29T10:01:08.263Z,13.23
2023-04-29T10:03:38.130Z,13.28
2023-04-29T10:06:08.208Z,13.23
2023-04-29T10:08:36.952Z,13.29
2023-04-29T10:11:06.073Z,13.35
2023-04-29T10:13:38.213Z,13.41
2023-04-29T10:16:14.723Z,13.62
2023-04-29T10:18:45.978Z,13.78
2023-04-29T10:21:14.965Z,13.71
2023-04-29T10:23:45.059Z,13.85
2023-04-29T10:26:14.714Z,13.89
2023-04-29T10:28:46.108Z,13.75
2023-04-29T10:31:17.965Z,13.78
2023-04-29T10:33:48.050Z,13.76
2023-04-29T10:36:17.247Z,13.78
2023-04-29T10:38:50.853Z,13.87
2023-04-29T10:41:25.579Z,13.87
2023-04-29T10:43:53.845Z,13.90
2023-04-29T10:46:26.363Z,13.94
2023-04-29T10:48:59.544Z,13.83
2023-04-29T10:51:35.683Z,13.78
2023-04-29T10:54:09.274Z,13.81
2023-04-29T10:56:42.516Z,13.87
2023-04-29T10:59:12.756Z,13.84
2023-04-29T11:01:50.182Z,13.91
2023-04-29T11:04:19.210Z,14.01
2023-04-29T11:06:48.991Z,13.95
2023-04-29T11:09:21.211Z,13.99
2023-04-29T11:11:58.143Z,13.94
2023-04-29T11:14:27.954Z,13.94
2023-04-29T11:16:59.998Z,13.98
2023-04-29T11:19:32.874Z,14.01
2023-04-29T11:22:30.395Z,13.86
2023-04-29T11:25:00.498Z,13.90
2023-04-29T11:27:32.246Z,14.00
2023-04-29T11:30:01.433Z,14.06
2023-04-29T11:32:32.054Z,14.00
2023-04-29T11:35:09.286Z,13.89
2023-04-29T11:37:38.063Z,14.03
2023-04-29T11:40:07.830Z,14.15
2023-04-29T11:42:36.313Z,14.13
2023-04-29T11:45:04.585Z,14.18
2023-04-29T11:47:34.319Z,14.14
2023-04-29T11:50:06.865Z,14.27
2023-04-29T11:52:37.078Z,14.24
2023-04-29T11:55:05.376Z,14.33
2023-04-29T11:57:33.416Z,14.48
2023-04-29T12:00:02.424Z,14.44
2023-04-29T12:02:37.683Z,14.48
2023-04-29T12:05:08.508Z,14.48
2023-04-29T12:07:37.291Z,14.47
2023-04-29T12:10:09.673Z,14.44
2023-04-29T12:12:40.654Z,14.29
2023-04-29T12:15:10.837Z,14.38
2023-04-29T12:17:40.665Z,14.45
2023-04-29T12:20:10.570Z,14.40
2023-04-29T12:22:38.832Z,14.48
2023-04-29T12:25:08.346Z,14.58
2023-04-29T12:27:37.259Z,14.62
2023-04-29T12:30:09.607Z,14.55
2023-04-29T12:32:38.257Z,14.58
2023-04-29T12:35:16.989Z,14.45
2023-04-29T12:37:44.944Z,14.52
2023-04-29T12:40:15.222Z,14.58
2023-04-29T12:42:44.988Z,14.63
2023-04-29T12:45:27.845Z,14.46
2023-04-29T12:47:58.154Z,14.50
2023-04-29T12:50:33.262Z,14.55
2023-04-29T12:53:02.718Z,14.54
2023-04-29T12:55:30.755Z,14.48
2023-04-29T12:58:00.954Z,14.56
2023-04-29T13:00:30.092Z,14.34
2023-04-29T13:02:58.014Z,14.31
2023-04-29T13:05:26.121Z,14.42
2023-04-29T13:07:56.806Z,14.29
2023-04-29T13:10:24.748Z,14.36
2023-04-29T13:12:53.445Z,14.27
2023-04-29T13:15:22.509Z,14.28
2023-04-29T13:17:51.831Z,14.28
2023-04-29T13:20:20.646Z,14.34
2023-04-29T13:22:48.968Z,14.30
2023-04-29T13:25:18.842Z,14.22
2023-04-29T13:27:46.855Z,14.14
2023-04-29T13:30:15.339Z,14.35
2023-04-29T13:32:49.365Z,14.18
2023-04-29T13:35:22.355Z,14.23
2023-04-29T13:37:50.514Z,14.09
2023-04-29T13:40:21.204Z,14.14
2023-04-29T13:42:50.763Z,14.05
2023-04-29T13:45:30.534Z,14.12
2023-04-29T13:48:09.499Z,14.18
2023-04-29T13:56:42.062Z,14.13
2023-04-29T13:59:30.600Z,14.10
2023-04-29T14:04:01.417Z,14.24
2023-04-29T14:06:30.461Z,14.21
2023-04-29T14:08:59.262Z,14.13
2023-04-29T14:11:29.139Z,14.12
2023-04-29T14:13:57.340Z,14.20
2023-04-29T14:16:25.379Z,14.24
2023-04-29T14:18:53.333Z,14.20
2023-04-29T14:21:22.626Z,14.17
2023-04-29T14:23:50.642Z,13.96
2023-04-29T14:28:58.164Z,14.07
2023-04-29T14:31:28.039Z,13.98
2023-04-29T14:33:56.332Z,13.96
2023-04-29T14:36:24.419Z,14.04
2023-04-29T14:38:52.636Z,13.99
2023-04-29T14:41:21.684Z,14.10
2023-04-29T14:43:51.030Z,13.96
2023-04-29T14:46:18.967Z,13.95
2023-04-29T14:48:46.915Z,14.08
2023-04-29T14:51:15.089Z,14.06
2023-04-29T14:53:43.055Z,13.92
2023-04-29T14:56:11.013Z,13.83
2023-04-29T14:58:38.868Z,13.86
2023-04-29T15:01:08.970Z,13.81
2023-04-29T15:03:43.648Z,13.84
2023-04-29T15:06:13.405Z,13.70
2023-04-29T15:08:41.441Z,13.75
2023-04-29T15:11:09.507Z,13.69
2023-04-29T15:13:37.617Z,13.70
2023-04-29T15:16:07.373Z,13.60
2023-04-29T15:18:36.700Z,13.55
2023-04-29T15:21:04.720Z,13.56
2023-04-29T15:23:33.065Z,13.62
2023-04-29T15:26:01.131Z,13.68
2023-04-29T15:28:28.976Z,13.71
2023-04-29T15:30:56.863Z,13.83
2023-04-29T15:33:24.668Z,13.69
2023-04-29T15:35:54.187Z,13.53
2023-04-29T15:38:21.987Z,13.50
2023-04-29T15:40:49.936Z,13.46
2023-04-29T15:43:17.788Z,13.25
2023-04-29T15:45:46.031Z,13.14
2023-04-29T15:48:14.744Z,13.10
2023-04-29T15:50:43.032Z,13.05
2023-04-29T15:53:12.738Z,12.96
2023-04-29T15:55:40.981Z,12.92
2023-04-29T15:58:08.850Z,12.79
2023-04-29T16:00:38.755Z,12.80
2023-04-29T16:03:06.765Z,12.73
2023-04-29T16:05:34.633Z,12.77
2023-04-29T16:08:02.458Z,12.61
2023-04-29T16:10:32.410Z,12.73
2023-04-29T16:13:00.760Z,12.65
2023-04-29T16:15:29.118Z,12.54
2023-04-29T16:17:57.229Z,12.48
2023-04-29T16:20:25.559Z,12.46
2023-04-29T16:22:53.494Z,12.47
2023-04-29T16:25:21.289Z,12.44
2023-04-29T16:27:50.535Z,12.42
2023-04-29T16:30:18.405Z,12.41
2023-04-29T16:32:46.275Z,12.38
2023-04-29T16:35:14.242Z,12.38
2023-04-29T16:37:42.290Z,12.38
2023-04-29T16:40:11.362Z,12.36
2023-04-29T16:42:39.173Z,12.27
2023-04-29T16:45:11.125Z,12.33
2023-04-29T16:47:40.870Z,12.29
2023-04-29T16:50:09.629Z,12.30
2023-04-29T16:52:37.657Z,12.24
2023-04-29T16:55:06.120Z,12.26
2023-04-29T16:57:34.475Z,12.21
2023-04-29T17:00:03.091Z,12.24
2023-04-29T17:02:32.543Z,12.26
2023-04-29T17:05:01.109Z,12.19
2023-04-29T17:07:30.114Z,12.21
2023-04-29T17:09:58.053Z,12.25
2023-04-29T17:12:26.122Z,12.27
2023-04-29T17:14:54.573Z,12.23
2023-04-29T17:17:22.487Z,12.24
2023-04-29T17:19:52.183Z,12.07
2023-04-29T17:22:20.423Z,12.16
2023-04-29T17:24:48.622Z,12.12
2023-04-29T17:27:17.964Z,12.18
2023-04-29T17:29:46.272Z,12.11
2023-04-29T17:32:17.294Z,12.09
2023-04-29T17:34:45.253Z,12.07
2023-04-29T17:37:14.443Z,12.06
2023-04-29T17:39:42.260Z,11.98
2023-04-29T17:42:10.095Z,11.98
2023-04-29T17:44:38.092Z,12.03
2023-04-29T17:47:06.127Z,12.00
2023-04-29T17:49:34.723Z,12.02
2023-04-29T17:52:04.109Z,11.97
2023-04-29T17:54:33.466Z,12.04
2023-04-29T17:57:02.175Z,12.08
2023-04-29T17:59:30.803Z,12.09
2023-04-29T18:01:58.798Z,12.05
2023-04-29T18:04:26.917Z,11.96
2023-04-29T18:06:55.211Z,11.95
2023-04-29T18:09:23.426Z,11.93
2023-04-29T18:11:54.035Z,12.01
2023-04-29T18:14:22.993Z,11.89
2023-04-29T18:16:52.693Z,11.85
2023-04-29T18:19:21.010Z,11.88
2023-04-29T18:21:49.113Z,11.85
2023-04-29T18:24:17.024Z,11.85
2023-04-29T18:26:44.862Z,11.87
2023-04-29T18:29:14.611Z,11.81
2023-04-29T18:31:43.341Z,11.83
2023-04-29T18:34:11.289Z,11.83
2023-04-29T18:36:39.735Z,11.81
2023-04-29T18:39:09.870Z,11.83
2023-04-29T18:41:39.017Z,11.77
2023-04-29T18:44:07.002Z,11.78
2023-04-29T18:46:36.945Z,11.79
2023-04-29T18:49:04.821Z,11.72
2023-04-29T18:51:32.608Z,11.65
2023-04-29T18:54:00.436Z,11.62
2023-04-29T18:56:28.352Z,11.57
2023-04-29T18:58:56.413Z,11.66
2023-04-29T19:01:24.345Z,11.59
2023-04-29T19:03:55.433Z,11.58
2023-04-29T19:06:24.075Z,11.57
2023-04-29T19:08:52.653Z,11.45
2023-04-29T19:11:22.481Z,11.45
2023-04-29T19:13:50.341Z,11.46
2023-04-29T19:16:18.550Z,11.50
2023-04-29T19:18:47.471Z,11.36
2023-04-29T19:21:17.283Z,11.34
2023-04-29T19:23:45.484Z,11.29
2023-04-29T19:26:13.570Z,11.20
2023-04-29T19:28:41.653Z,11.16
2023-04-29T19:31:11.456Z,11.20
2023-04-29T19:33:39.329Z,11.18
2023-04-29T19:36:07.415Z,11.17
2023-04-29T19:38:38.420Z,11.17
2023-04-29T19:41:06.341Z,11.18
2023-04-29T19:43:34.204Z,11.11
2023-04-29T19:46:02.875Z,11.12
2023-04-29T19:48:30.820Z,11.06
2023-04-29T19:51:00.121Z,11.08
2023-04-29T19:53:29.908Z,11.00
2023-04-29T19:55:59.288Z,10.99
2023-04-29T19:58:27.522Z,10.96
2023-04-29T20:00:55.426Z,10.90
2023-04-29T20:03:23.474Z,10.92
2023-04-29T20:05:51.591Z,10.88
2023-04-29T20:08:19.505Z,10.80
2023-04-29T20:10:48.290Z,10.85
2023-04-29T20:13:17.604Z,10.86
2023-04-29T20:15:45.678Z,10.85
2023-04-29T20:18:14.299Z,10.80
2023-04-29T20:20:42.691Z,10.82
2023-04-29T20:23:11.591Z,10.83
2023-04-29T20:25:39.437Z,10.86
2023-04-29T20:28:08.924Z,10.79
2023-04-29T20:30:38.320Z,10.82
2023-04-29T20:33:07.831Z,10.85
2023-04-29T20:35:37.112Z,10.80
2023-04-29T20:38:06.232Z,10.77
2023-04-29T20:40:34.667Z,10.79
2023-04-29T20:43:03.217Z,10.81
2023-04-29T20:45:31.389Z,10.81
2023-04-29T20:48:00.649Z,10.78
2023-04-29T20:50:28.987Z,10.82
2023-04-29T20:52:56.792Z,10.79
2023-04-29T20:55:24.942Z,10.81
2023-04-29T20:57:52.780Z,10.79
2023-04-29T21:00:20.644Z,10.83
2023-04-29T21:02:48.691Z,10.82
2023-04-29T21:05:18.136Z,10.84
2023-04-29T21:07:46.271Z,10.83
2023-04-29T21:10:14.476Z,10.83
2023-04-29T21:12:42.668Z,10.81
2023-04-29T21:15:11.370Z,10.85
2023-04-29T21:17:39.968Z,10.84
2023-04-29T21:20:09.703Z,10.83
2023-04-29T21:22:39.073Z,10.83
2023-04-29T21:25:08.071Z,10.84
2023-04-29T21:27:36.523Z,10.80
2023-04-29T21:30:05.780Z,10.84
2023-04-29T21:32:33.913Z,10.85
2023-04-29T21:35:02.022Z,10.84
2023-04-29T21:37:30.312Z,10.83
2023-04-29T21:40:00.326Z,10.83
2023-04-29T21:42:28.888Z,10.84
2023-04-29T21:44:59.657Z,10.83
2023-04-29T21:47:29.013Z,10.87
2023-04-29T21:49:57.236Z,10.84
2023-04-29T21:52:26.068Z,10.82
2023-04-29T21:54:55.193Z,10.85
2023-04-29T21:57:35.602Z,10.84
2023-04-29T22:00:21.669Z,10.79
2023-04-29T22:02:49.642Z,10.83
2023-04-29T22:05:17.791Z,10.84
2023-04-29T22:07:46.037Z,10.82
2023-04-29T22:10:13.903Z,10.78
2023-04-29T22:12:43.126Z,10.78
2023-04-29T22:15:24.527Z,10.77
2023-04-29T22:17:55.946Z,10.81
2023-04-29T22:20:24.250Z,10.79
2023-04-29T22:22:52.398Z,10.81
2023-04-29T22:25:22.233Z,10.84
2023-04-29T22:27:52.485Z,10.74
2023-04-29T22:30:20.847Z,10.76
2023-04-29T22:32:49.143Z,10.71
2023-04-29T22:35:18.789Z,10.73
2023-04-29T22:37:48.594Z,10.74
2023-04-29T22:40:16.425Z,10.66
2023-04-29T22:42:44.368Z,10.73
2023-04-29T22:45:13.670Z,10.74
2023-04-29T22:47:41.944Z,10.77
2023-04-29T22:50:10.888Z,10.72
2023-04-29T22:52:39.108Z,10.75
2023-04-29T22:55:07.850Z,10.71
2023-04-29T22:57:35.709Z,10.66
2023-04-29T23:00:04.110Z,10.73
2023-04-29T23:02:33.367Z,10.73
2023-04-29T23:05:01.313Z,10.70
2023-04-29T23:07:29.204Z,10.75
2023-04-29T23:09:57.205Z,10.75
2023-04-29T23:12:25.623Z,10.73
2023-04-29T23:14:53.903Z,10.74
2023-04-29T23:17:21.689Z,10.75
2023-04-29T23:19:50.939Z,10.75
2023-04-29T23:22:19.200Z,10.74
2023-04-29T23:24:47.060Z,10.75
2023-04-29T23:27:14.882Z,10.75
2023-04-29T23:29:43.178Z,10.76
2023-04-29T23:32:11.227Z,10.73
2023-04-29T23:34:40.411Z,10.75
2023-04-29T23:37:09.631Z,10.74
2023-04-29T23:39:37.458Z,10.70
2023-04-29T23:42:05.438Z,10.69
2023-04-29T23:44:33.424Z,10.71
2023-04-29T23:47:01.257Z,10.72
2023-04-29T23:49:29.183Z,10.71
2023-04-29T23:51:57.636Z,10.71
2023-04-29T23:54:27.395Z,10.72
2023-04-29T23:56:55.265Z,10.69
2023-04-29T23:59:23.107Z,10.69
